Terminal Aerodrome Forecast
Issued by NWS

Current Version | Previous Version | Graphics & Text | Print | Product List | Glossary On
Versions: 1 2 3 4 5 6 7 8 9 10 11 12 13 14 15 16 17 18 19 20 21 22 23
000
FTUS41 KRLX 271100
TAFCKB
TAF
KCKB 271133Z 2712/2812 35007KT 6SM -SN BKN020
      TEMPO 2712/2713 5SM -SN
     FM271300 34006KT P6SM SCT015
     FM271500 30006KT P6SM BKN020
     FM271900 30006KT P6SM SCT030=

USA.gov is the U.S. government's official web portal to all federal, state and local government web resources and services.